Time;durP1;ratioP1;P1;durP2;ratioP2;P2;SDS_P1;SDS_P2;PMS_P1;PMS_P2;Temp;Humidity;BMP_temperature;BMP_pressure;BME280_temperature;BME280_humidity;BME280_pressure;Samples;Min_cycle;Max_cycle;Signal;HPM_P1;HPM_P2
2022/08/21 00:01:26;;;;;;;4.20;1.55;;;22.30;99.90;;;;;;6209498;23;20056;-78
2022/08/21 00:03:52;;;;;;;6.05;1.40;;;22.30;99.90;;;;;;6206988;23;20063;-79
2022/08/21 00:06:18;;;;;;;3.70;1.30;;;22.30;99.90;;;;;;6209303;23;20016;-78
2022/08/21 00:08:44;;;;;;;1.75;1.48;;;22.40;99.90;;;;;;6209311;23;20011;-79
2022/08/21 00:11:10;;;;;;;3.67;1.40;;;22.40;99.90;;;;;;6207828;23;20412;-80
2022/08/21 00:13:36;;;;;;;0.90;0.90;;;22.50;99.90;;;;;;6207618;23;20332;-80
2022/08/21 00:16:03;;;;;;;3.35;1.30;;;22.60;99.90;;;;;;6209448;23;20001;-79
2022/08/21 00:18:29;;;;;;;1.13;1.00;;;22.70;99.90;;;;;;6208410;23;20016;-80
2022/08/21 00:20:55;;;;;;;2.47;1.23;;;22.70;99.90;;;;;;6209729;23;20012;-80
2022/08/21 00:23:21;;;;;;;1.83;1.08;;;22.80;99.90;;;;;;6209083;23;20309;-79
2022/08/21 00:25:47;;;;;;;3.67;1.20;;;22.80;99.90;;;;;;6209295;23;20004;-80
2022/08/21 00:28:13;;;;;;;1.50;1.23;;;22.80;99.90;;;;;;6209052;23;20106;-80
2022/08/21 00:30:40;;;;;;;2.17;1.40;;;22.90;99.90;;;;;;6207438;23;20032;-81
2022/08/21 00:33:06;;;;;;;3.00;1.10;;;22.90;99.90;;;;;;6209370;23;20344;-81
2022/08/21 00:35:35;;;;;;;1.00;1.00;;;22.90;99.90;;;;;;6209649;23;20004;-79
2022/08/21 00:38:02;;;;;;;2.00;1.20;;;22.90;99.90;;;;;;6207171;23;20020;-81
2022/08/21 00:40:32;;;;;;;1.95;1.13;;;22.90;99.90;;;;;;6209664;23;20039;-80
2022/08/21 00:42:58;;;;;;;1.80;1.20;;;22.90;99.90;;;;;;6206805;23;20008;-79
2022/08/21 00:45:24;;;;;;;1.10;1.00;;;22.90;99.90;;;;;;6209251;23;20000;-79
2022/08/21 00:47:52;;;;;;;3.42;1.00;;;23.00;99.90;;;;;;6208878;23;20008;-79
2022/08/21 00:50:20;;;;;;;1.98;1.20;;;23.00;99.90;;;;;;6207538;23;20004;-79
2022/08/21 00:52:46;;;;;;;1.10;0.85;;;23.00;99.90;;;;;;6208748;23;20004;-79
2022/08/21 00:55:13;;;;;;;0.90;0.90;;;22.90;99.90;;;;;;6206959;23;20067;-79
2022/08/21 00:57:51;;;;;;;3.40;1.08;;;23.00;99.90;;;;;;6207322;23;19997;-79
2022/08/21 01:00:21;;;;;;;2.15;1.17;;;23.00;99.90;;;;;;6209007;23;20088;-79
2022/08/21 01:02:47;;;;;;;2.20;1.08;;;23.00;99.90;;;;;;6208810;23;20001;-80
2022/08/21 01:05:13;;;;;;;1.48;1.05;;;23.10;99.90;;;;;;6209258;23;20034;-80
2022/08/21 01:07:40;;;;;;;0.95;0.90;;;23.10;99.90;;;;;;6207447;23;20339;-80
2022/08/21 01:10:06;;;;;;;2.13;1.05;;;23.10;99.90;;;;;;6208498;23;20387;-80
2022/08/21 01:12:32;;;;;;;0.90;0.90;;;23.10;99.90;;;;;;6208788;23;20005;-80
2022/08/21 01:14:58;;;;;;;2.08;1.27;;;23.00;99.90;;;;;;6209395;23;20690;-80
2022/08/21 01:17:26;;;;;;;1.00;1.00;;;23.00;99.90;;;;;;6208376;23;20347;-80
2022/08/21 01:19:52;;;;;;;1.95;1.10;;;23.00;99.90;;;;;;6208857;23;20084;-80
2022/08/21 01:22:19;;;;;;;4.88;1.13;;;23.00;99.90;;;;;;6206359;23;19996;-79
2022/08/21 01:24:45;;;;;;;1.55;1.33;;;23.00;99.90;;;;;;6207319;23;20016;-79
2022/08/21 01:27:11;;;;;;;2.03;1.38;;;23.00;99.90;;;;;;6206798;23;20076;-79
2022/08/21 01:29:42;;;;;;;1.45;1.05;;;23.10;99.90;;;;;;6209193;23;20789;-79
2022/08/21 01:32:12;;;;;;;1.83;1.20;;;23.10;99.90;;;;;;6207089;23;20100;-78
2022/08/21 01:34:42;;;;;;;1.33;1.20;;;23.20;99.90;;;;;;6208233;23;20180;-79
2022/08/21 01:37:08;;;;;;;3.33;1.10;;;23.20;99.90;;;;;;6208792;23;20005;-79
2022/08/21 01:39:34;;;;;;;1.20;1.00;;;23.20;99.90;;;;;;6207276;23;20020;-81
2022/08/21 01:41:59;;;;;;;3.30;1.02;;;23.20;99.90;;;;;;6208722;23;20005;-81
2022/08/21 01:44:26;;;;;;;1.23;1.05;;;23.30;99.90;;;;;;6208540;23;20488;-80
2022/08/21 01:46:52;;;;;;;1.70;1.02;;;23.40;99.90;;;;;;6208734;23;20000;-79
2022/08/21 01:49:19;;;;;;;0.93;0.93;;;23.40;99.90;;;;;;6207819;23;20008;-79
2022/08/21 01:51:45;;;;;;;0.95;0.80;;;23.40;99.90;;;;;;6208775;23;20000;-79
2022/08/21 01:54:11;;;;;;;0.93;0.65;;;23.40;99.90;;;;;;6206859;23;20380;-79
2022/08/21 01:56:43;;;;;;;0.82;0.82;;;23.40;99.90;;;;;;6207610;23;20161;-79
2022/08/21 01:59:09;;;;;;;2.10;1.10;;;23.40;99.90;;;;;;6208253;23;20016;-80
2022/08/21 02:01:35;;;;;;;1.08;0.90;;;23.50;99.90;;;;;;6206718;23;20009;-79
2022/08/21 02:04:01;;;;;;;2.05;1.00;;;23.50;99.90;;;;;;6207990;23;20009;-79
2022/08/21 02:06:27;;;;;;;7.53;1.20;;;23.50;99.90;;;;;;6208534;23;20016;-79
2022/08/21 02:08:53;;;;;;;1.35;1.00;;;23.40;99.90;;;;;;6208044;23;20000;-79
2022/08/21 02:11:19;;;;;;;1.48;0.98;;;23.30;99.90;;;;;;6207269;23;20134;-79
2022/08/21 02:13:45;;;;;;;3.05;0.90;;;23.30;99.90;;;;;;6206348;23;20051;-79
2022/08/21 02:16:12;;;;;;;1.48;1.00;;;23.20;99.90;;;;;;6208799;23;20059;-80
2022/08/21 02:18:37;;;;;;;2.30;1.02;;;23.10;99.90;;;;;;6208140;23;20020;-79
2022/08/21 02:21:05;;;;;;;1.42;0.90;;;23.10;99.90;;;;;;6207001;23;20004;-79
2022/08/21 02:23:31;;;;;;;0.98;0.98;;;22.90;99.90;;;;;;6208352;23;20245;-79
2022/08/21 02:25:59;;;;;;;1.27;1.10;;;22.90;99.90;;;;;;6208426;23;19993;-79
2022/08/21 02:28:25;;;;;;;1.20;1.10;;;22.90;99.90;;;;;;6208034;23;20005;-78
2022/08/21 02:30:51;;;;;;;3.28;1.20;;;22.80;99.90;;;;;;6208735;23;20039;-79
2022/08/21 02:33:18;;;;;;;1.15;1.08;;;22.70;99.90;;;;;;6210137;23;20070;-79
2022/08/21 02:35:46;;;;;;;1.23;1.00;;;22.60;99.90;;;;;;6210347;23;20505;-79
2022/08/21 02:38:19;;;;;;;1.98;1.17;;;22.50;99.90;;;;;;6210010;23;20020;-79
2022/08/21 02:40:47;;;;;;;1.00;1.00;;;22.40;99.90;;;;;;6210271;23;20011;-79
2022/08/21 02:43:14;;;;;;;1.17;1.02;;;22.30;99.90;;;;;;6209707;23;20031;-79
2022/08/21 02:45:41;;;;;;;1.17;1.08;;;22.20;99.90;;;;;;6210670;23;20004;-80
2022/08/21 02:48:09;;;;;;;1.10;1.00;;;22.20;99.90;;;;;;6208071;23;20167;-79
2022/08/21 02:50:38;;;;;;;0.98;0.98;;;22.10;99.90;;;;;;6208670;23;20004;-78
2022/08/21 02:53:06;;;;;;;1.98;1.30;;;22.10;99.90;;;;;;6208124;23;20005;-78
2022/08/21 02:55:33;;;;;;;2.03;1.10;;;22.20;99.90;;;;;;6208626;23;20339;-78
2022/08/21 02:57:59;;;;;;;1.23;1.23;;;22.20;99.90;;;;;;6209716;23;20891;-79
2022/08/21 03:00:30;;;;;;;0.98;0.98;;;22.30;99.90;;;;;;6210050;23;20009;-79
2022/08/21 03:02:56;;;;;;;4.53;1.10;;;22.30;99.90;;;;;;6208181;23;20001;-80
2022/08/21 03:05:24;;;;;;;1.58;1.27;;;22.20;99.90;;;;;;6210224;23;20005;-79
2022/08/21 03:07:52;;;;;;;1.20;1.10;;;22.30;99.90;;;;;;6209411;23;20023;-79
2022/08/21 03:10:19;;;;;;;1.42;1.13;;;22.40;99.90;;;;;;6208290;23;20012;-78
2022/08/21 03:12:46;;;;;;;1.58;1.15;;;22.40;99.90;;;;;;6209862;23;20475;-80
2022/08/21 03:15:13;;;;;;;2.53;1.23;;;22.50;99.90;;;;;;6207891;23;20074;-79
2022/08/21 03:17:39;;;;;;;1.27;1.17;;;22.50;99.90;;;;;;6209518;23;20016;-79
2022/08/21 03:20:08;;;;;;;1.60;1.17;;;22.60;99.90;;;;;;6207880;23;20439;-79
2022/08/21 03:22:34;;;;;;;1.17;1.10;;;22.50;99.90;;;;;;6209678;23;20004;-79
2022/08/21 03:25:00;;;;;;;2.20;1.13;;;22.40;99.90;;;;;;6212778;23;20013;-79
2022/08/21 03:27:28;;;;;;;1.50;0.95;;;22.30;99.90;;;;;;6211980;23;20000;-80
2022/08/21 03:29:54;;;;;;;1.52;1.02;;;22.20;99.90;;;;;;6213616;23;20001;-79
2022/08/21 03:32:20;;;;;;;1.60;1.30;;;22.00;99.90;;;;;;6212046;23;20015;-79
2022/08/21 03:34:46;;;;;;;1.60;1.00;;;21.90;99.90;;;;;;6212578;23;19996;-79
2022/08/21 03:37:13;;;;;;;2.70;1.63;;;21.80;99.90;;;;;;6213719;23;20031;-79
2022/08/21 03:39:41;;;;;;;1.48;1.15;;;21.60;99.90;;;;;;6213740;23;20440;-78
2022/08/21 03:42:08;;;;;;;1.27;1.23;;;21.50;99.90;;;;;;6211456;23;20006;-79
2022/08/21 03:44:34;;;;;;;2.13;1.45;;;21.50;99.90;;;;;;6213694;23;20379;-79
2022/08/21 03:47:00;;;;;;;2.97;1.30;;;21.40;99.90;;;;;;6213733;23;20007;-79
2022/08/21 03:49:27;;;;;;;1.15;1.10;;;21.30;99.90;;;;;;6212051;23;20010;-79
2022/08/21 03:51:52;;;;;;;1.52;1.08;;;21.30;99.90;;;;;;6213650;23;20003;-79
2022/08/21 03:54:22;;;;;;;4.07;1.63;;;21.30;99.90;;;;;;6213597;23;20005;-79
2022/08/21 03:56:47;;;;;;;1.52;1.30;;;21.20;99.90;;;;;;6213834;23;19996;-79
2022/08/21 03:59:13;;;;;;;1.35;1.20;;;21.20;99.90;;;;;;6212995;23;20405;-79
2022/08/21 04:01:39;;;;;;;5.60;1.40;;;21.10;99.90;;;;;;6212357;23;20000;-79
2022/08/21 04:04:05;;;;;;;2.38;1.40;;;21.10;99.90;;;;;;6213172;23;20000;-79
2022/08/21 04:06:31;;;;;;;5.38;1.10;;;21.00;99.90;;;;;;6212193;23;20000;-79
2022/08/21 04:08:57;;;;;;;1.40;1.27;;;21.00;99.90;;;;;;6213259;23;20078;-79
2022/08/21 04:11:23;;;;;;;1.92;1.48;;;21.00;99.90;;;;;;6212033;23;20004;-79
2022/08/21 04:13:49;;;;;;;2.35;1.33;;;21.00;99.90;;;;;;6211176;23;20336;-79
2022/08/21 04:16:15;;;;;;;1.77;1.40;;;20.90;99.90;;;;;;6212391;23;20001;-79
2022/08/21 04:18:42;;;;;;;3.40;1.30;;;20.90;99.90;;;;;;6212691;23;20055;-79
2022/08/21 04:21:10;;;;;;;3.30;1.35;;;20.90;99.90;;;;;;6213430;23;20003;-79
2022/08/21 04:23:36;;;;;;;1.73;1.30;;;20.80;99.90;;;;;;6213299;23;20059;-79
2022/08/21 04:26:02;;;;;;;1.42;1.23;;;20.80;99.90;;;;;;6213723;23;20408;-79
2022/08/21 04:28:28;;;;;;;1.33;1.20;;;20.80;99.90;;;;;;6212963;23;20005;-79
2022/08/21 04:30:54;;;;;;;2.33;1.40;;;20.80;99.90;;;;;;6213483;23;20525;-80
2022/08/21 04:33:21;;;;;;;2.28;1.52;;;20.80;99.90;;;;;;6213117;23;20420;-79
2022/08/21 04:35:48;;;;;;;2.60;1.40;;;20.80;99.90;;;;;;6213397;23;20003;-80
2022/08/21 04:38:14;;;;;;;4.60;1.42;;;20.80;99.90;;;;;;6212662;23;20518;-80
2022/08/21 04:40:40;;;;;;;5.07;1.30;;;20.80;99.90;;;;;;6213692;23;20031;-80
2022/08/21 04:43:09;;;;;;;2.28;1.50;;;20.90;99.90;;;;;;6212631;23;20035;-79
2022/08/21 04:45:44;;;;;;;3.70;1.58;;;20.90;99.90;;;;;;6211940;23;20009;-80
2022/08/21 04:48:13;;;;;;;10.60;1.45;;;20.90;99.90;;;;;;6212871;23;20009;-79
2022/08/21 04:51:07;;;;;;;2.45;1.40;;;21.00;99.90;;;;;;6213120;23;19997;-80
2022/08/21 04:53:45;;;;;;;2.92;1.25;;;21.00;99.90;;;;;;6211008;23;20439;-79
2022/08/21 04:56:34;;;;;;;3.80;1.60;;;21.10;99.90;;;;;;6211652;23;20009;-79
2022/08/21 04:59:04;;;;;;;2.15;1.13;;;21.20;99.90;;;;;;6212241;23;20013;-79
2022/08/21 05:01:33;;;;;;;1.50;1.35;;;21.30;99.90;;;;;;6211355;23;19997;-79
2022/08/21 05:04:02;;;;;;;2.13;1.23;;;21.30;99.90;;;;;;6210909;23;20000;-80
2022/08/21 05:06:31;;;;;;;1.25;1.08;;;21.40;99.90;;;;;;6211583;23;20000;-79
2022/08/21 05:08:58;;;;;;;3.83;1.50;;;21.50;99.90;;;;;;6211138;23;20005;-79
2022/08/21 05:11:24;;;;;;;3.67;1.40;;;21.60;99.90;;;;;;6211789;23;20088;-79
2022/08/21 05:13:50;;;;;;;3.33;1.23;;;21.60;99.90;;;;;;6212534;23;20000;-79
2022/08/21 05:16:16;;;;;;;4.57;1.40;;;21.70;99.90;;;;;;6211546;23;20004;-80
2022/08/21 05:18:42;;;;;;;3.17;1.42;;;21.70;99.90;;;;;;6212362;23;20016;-79
2022/08/21 05:21:09;;;;;;;6.72;1.20;;;21.70;99.90;;;;;;6212821;23;20001;-80
2022/08/21 05:23:35;;;;;;;3.45;1.50;;;21.60;99.90;;;;;;6210883;23;20108;-80
2022/08/21 05:26:01;;;;;;;2.28;1.30;;;21.70;99.90;;;;;;6207591;23;20131;-79
2022/08/21 05:28:26;;;;;;;1.30;1.30;;;21.60;99.90;;;;;;6211611;23;20009;-79
2022/08/21 05:30:52;;;;;;;1.40;1.30;;;21.60;99.90;;;;;;6212190;23;20420;-80
2022/08/21 05:33:18;;;;;;;5.28;1.70;;;21.60;99.90;;;;;;6211037;23;20004;-79
2022/08/21 05:35:44;;;;;;;2.03;1.30;;;21.50;99.90;;;;;;6211439;23;20004;-79
2022/08/21 05:38:09;;;;;;;4.78;1.23;;;21.60;99.90;;;;;;6212390;23;20121;-79
2022/08/21 05:40:35;;;;;;;1.30;1.20;;;21.50;99.90;;;;;;6212859;23;20004;-80
2022/08/21 05:43:01;;;;;;;1.92;1.38;;;21.60;99.90;;;;;;6210624;23;20439;-79
2022/08/21 05:45:30;;;;;;;2.05;1.40;;;21.50;99.90;;;;;;6213121;23;20003;-79
2022/08/21 05:47:56;;;;;;;1.38;1.27;;;21.50;99.90;;;;;;6212502;23;20001;-79
2022/08/21 05:50:22;;;;;;;3.00;1.83;;;21.50;99.90;;;;;;6212599;23;20004;-80
2022/08/21 05:52:47;;;;;;;2.47;1.30;;;21.50;99.90;;;;;;6210838;23;20007;-79
2022/08/21 05:55:13;;;;;;;1.70;1.45;;;21.60;99.90;;;;;;6212880;23;19996;-79
2022/08/21 05:57:41;;;;;;;2.35;1.38;;;21.60;99.90;;;;;;6212233;23;20133;-79
2022/08/21 06:00:12;;;;;;;1.90;1.23;;;21.60;99.90;;;;;;6212589;23;20013;-79
2022/08/21 06:02:39;;;;;;;6.75;1.48;;;21.70;99.90;;;;;;6210685;23;20000;-79
2022/08/21 06:05:05;;;;;;;2.38;1.35;;;21.70;99.90;;;;;;6212314;23;20432;-79
2022/08/21 06:07:31;;;;;;;4.68;1.65;;;21.80;99.90;;;;;;6214577;23;19996;-79
2022/08/21 06:09:57;;;;;;;1.77;1.30;;;21.80;99.90;;;;;;6214707;23;20335;-80
2022/08/21 06:12:23;;;;;;;1.55;1.13;;;21.90;99.90;;;;;;6214874;23;20016;-79
2022/08/21 06:14:50;;;;;;;1.55;1.20;;;22.00;99.90;;;;;;6212937;23;20066;-79
2022/08/21 06:17:16;;;;;;;3.50;1.50;;;22.10;99.90;;;;;;6212546;23;20099;-80
2022/08/21 06:19:41;;;;;;;2.03;1.42;;;22.30;99.90;;;;;;6212989;23;20352;-79
2022/08/21 06:22:07;;;;;;;1.92;1.42;;;22.40;99.90;;;;;;6212762;23;20001;-79
2022/08/21 06:24:33;;;;;;;1.83;1.30;;;22.50;99.90;;;;;;6214711;23;20000;-82
2022/08/21 06:27:05;;;;;;;3.03;1.17;;;22.60;99.90;;;;;;6213052;23;20005;-84
2022/08/21 06:29:31;;;;;;;2.47;1.40;;;22.70;99.90;;;;;;6214934;23;20419;-79
2022/08/21 06:31:57;;;;;;;3.90;1.90;;;22.90;99.90;;;;;;6212747;23;20008;-78
2022/08/21 06:34:22;;;;;;;1.80;1.52;;;22.90;99.90;;;;;;6212651;23;20101;-78
2022/08/21 06:36:48;;;;;;;1.27;1.00;;;23.00;99.90;;;;;;6214548;23;20000;-80
2022/08/21 06:39:14;;;;;;;2.63;1.30;;;23.00;99.90;;;;;;6212335;23;20036;-81
2022/08/21 06:41:40;;;;;;;2.63;1.50;;;23.10;99.90;;;;;;6214613;23;19996;-79
2022/08/21 06:44:06;;;;;;;1.73;1.48;;;23.20;99.90;;;;;;6214117;23;20000;-81
2022/08/21 06:46:32;;;;;;;1.70;1.33;;;23.30;99.90;;;;;;6214506;23;20000;-80
2022/08/21 06:48:58;;;;;;;1.58;1.10;;;23.40;99.90;;;;;;6213935;23;20127;-81
2022/08/21 06:51:25;;;;;;;1.45;1.30;;;23.50;99.90;;;;;;6213367;23;19997;-81
2022/08/21 06:53:51;;;;;;;2.67;1.30;;;23.50;99.90;;;;;;6212469;23;20015;-79
2022/08/21 06:56:17;;;;;;;2.13;1.20;;;23.60;99.90;;;;;;6212352;23;20000;-80
2022/08/21 06:58:43;;;;;;;1.30;1.20;;;23.60;99.90;;;;;;6212215;23;20494;-80
2022/08/21 07:01:09;;;;;;;1.77;1.10;;;23.70;99.90;;;;;;6214344;23;19997;-81
2022/08/21 07:03:38;;;;;;;3.38;1.33;;;23.70;99.90;;;;;;6213923;23;20480;-80
2022/08/21 07:06:05;;;;;;;3.72;1.30;;;23.70;99.90;;;;;;6213176;23;20000;-78
2022/08/21 07:08:31;;;;;;;1.33;1.23;;;23.70;99.90;;;;;;6213908;23;20122;-77
2022/08/21 07:11:00;;;;;;;1.67;1.20;;;23.70;99.90;;;;;;6214235;23;20629;-78
2022/08/21 07:13:26;;;;;;;2.45;1.40;;;24.00;99.90;;;;;;6213546;23;20436;-78
2022/08/21 07:15:52;;;;;;;2.05;1.08;;;24.20;99.90;;;;;;6214424;23;20001;-78
2022/08/21 07:18:18;;;;;;;3.38;1.20;;;24.50;99.90;;;;;;6213275;23;20048;-78
2022/08/21 07:20:45;;;;;;;2.65;1.23;;;24.70;99.90;;;;;;6212552;23;20009;-78
2022/08/21 07:23:32;;;;;;;4.03;1.30;;;24.80;99.90;;;;;;6213781;23;20060;-78
2022/08/21 07:26:01;;;;;;;1.30;1.10;;;25.00;99.90;;;;;;6212425;23;20060;-79
2022/08/21 07:28:28;;;;;;;4.43;1.10;;;25.10;99.90;;;;;;6213734;23;20052;-78
2022/08/21 07:30:56;;;;;;;3.92;1.10;;;25.30;99.90;;;;;;6214310;23;20016;-78
2022/08/21 07:33:23;;;;;;;1.42;1.23;;;25.40;99.90;;;;;;6212143;23;20063;-82
2022/08/21 07:35:49;;;;;;;1.58;1.30;;;25.50;99.90;;;;;;6212544;23;20007;-81
2022/08/21 07:38:15;;;;;;;2.60;1.10;;;25.60;99.90;;;;;;6211938;23;20013;-81
2022/08/21 07:40:41;;;;;;;1.98;1.10;;;25.70;99.90;;;;;;6212353;23;20004;-83
2022/08/21 07:43:06;;;;;;;1.92;0.98;;;25.90;99.90;;;;;;6213496;23;20005;-80
2022/08/21 07:45:33;;;;;;;2.55;1.40;;;26.10;99.90;;;;;;6214311;23;20005;-82
2022/08/21 07:47:58;;;;;;;10.52;1.05;;;26.10;99.90;;;;;;6213445;23;20046;-81
2022/08/21 07:50:25;;;;;;;1.15;1.02;;;26.20;99.90;;;;;;6212596;23;20428;-84
2022/08/21 07:52:51;;;;;;;1.85;1.30;;;26.10;99.90;;;;;;6212030;23;20012;-80
2022/08/21 07:55:19;;;;;;;2.85;1.20;;;26.10;99.90;;;;;;6212358;23;20020;-80
2022/08/21 07:57:46;;;;;;;1.65;1.17;;;26.10;99.90;;;;;;6211469;23;20493;-80
2022/08/21 08:00:16;;;;;;;1.60;1.50;;;26.00;99.90;;;;;;6213835;23;20027;-81
2022/08/21 08:02:46;;;;;;;1.38;1.00;;;26.00;99.90;;;;;;6213630;23;19996;-80
2022/08/21 08:05:12;;;;;;;2.55;1.00;;;25.90;99.90;;;;;;6214162;23;20004;-78
2022/08/21 08:07:38;;;;;;;1.92;1.20;;;25.80;99.90;;;;;;6211838;23;20075;-78
2022/08/21 08:10:06;;;;;;;7.47;1.50;;;25.80;99.90;;;;;;6211941;23;20031;-79
2022/08/21 08:12:33;;;;;;;4.00;1.20;;;25.70;99.90;;;;;;6213561;23;20011;-78
2022/08/21 08:15:00;;;;;;;3.72;1.40;;;25.80;99.90;;;;;;6213746;23;20003;-78
2022/08/21 08:17:26;;;;;;;1.90;1.20;;;25.80;99.90;;;;;;6211488;23;20179;-78
2022/08/21 08:19:53;;;;;;;5.70;1.30;;;25.80;99.90;;;;;;6213624;23;20032;-78
2022/08/21 08:22:23;;;;;;;2.97;1.10;;;25.90;99.90;;;;;;6211811;23;20008;-79
2022/08/21 08:24:50;;;;;;;1.40;1.30;;;26.00;99.90;;;;;;6212053;23;20063;-78
2022/08/21 08:27:16;;;;;;;2.20;1.30;;;26.20;99.90;;;;;;6213075;23;20000;-78
2022/08/21 08:29:43;;;;;;;1.83;1.40;;;26.30;99.90;;;;;;6213221;23;20027;-78
2022/08/21 08:32:09;;;;;;;2.95;1.20;;;26.40;99.90;;;;;;6211709;23;20004;-79
2022/08/21 08:34:36;;;;;;;2.17;1.35;;;26.60;99.90;;;;;;6211622;23;20017;-78
2022/08/21 08:37:03;;;;;;;1.63;1.40;;;26.70;99.90;;;;;;6212973;23;20004;-78
2022/08/21 08:39:29;;;;;;;1.48;1.27;;;26.90;99.90;;;;;;6211472;23;20008;-80
2022/08/21 08:42:09;;;;;;;2.85;1.60;;;27.10;99.90;;;;;;6212976;23;20067;-80
2022/08/21 08:44:36;;;;;;;3.35;1.60;;;27.30;99.90;;;;;;6213215;23;20007;-79
2022/08/21 08:47:04;;;;;;;3.15;1.50;;;27.40;99.90;;;;;;6213120;23;20055;-78
2022/08/21 08:49:48;;;;;;;5.30;1.50;;;27.60;99.90;;;;;;6211505;23;20008;-80
2022/08/21 08:52:28;;;;;;;3.42;1.98;;;27.60;99.90;;;;;;6212596;23;20024;-78
2022/08/21 08:55:05;;;;;;;3.42;2.00;;;27.70;99.90;;;;;;6211592;23;20001;-78
2022/08/21 08:57:32;;;;;;;3.70;1.90;;;27.70;99.90;;;;;;6211060;23;20055;-78
2022/08/21 09:00:01;;;;;;;2.55;1.85;;;27.60;99.90;;;;;;6212819;23;20103;-79
2022/08/21 09:02:28;;;;;;;4.18;2.00;;;27.70;99.90;;;;;;6210971;23;20417;-79
2022/08/21 09:04:55;;;;;;;3.22;1.73;;;27.80;99.90;;;;;;6211820;23;20012;-78
2022/08/21 09:07:39;;;;;;;2.47;1.70;;;27.80;99.90;;;;;;6211416;23;20004;-78
2022/08/21 09:10:34;;;;;;;1.92;1.30;;;27.80;99.90;;;;;;6211404;23;20039;-78
2022/08/21 09:13:10;;;;;;;1.70;1.60;;;27.60;99.90;;;;;;6212645;23;20001;-78
2022/08/21 09:16:00;;;;;;;2.47;1.40;;;27.40;99.90;;;;;;6213143;23;20143;-78
2022/08/21 09:18:44;;;;;;;5.05;1.55;;;27.30;99.90;;;;;;6212056;23;20009;-78
2022/08/21 09:21:56;;;;;;;2.83;1.50;;;27.30;99.90;;;;;;6212714;23;20004;-78
2022/08/21 09:24:40;;;;;;;5.15;1.60;;;27.20;99.90;;;;;;6136269;23;20001;-78
2022/08/21 09:27:17;;;;;;;3.33;1.60;;;27.00;99.90;;;;;;6212735;23;20004;-79
2022/08/21 09:29:47;;;;;;;3.17;1.67;;;26.90;99.90;;;;;;6212659;23;20054;-78
2022/08/21 09:32:19;;;;;;;2.25;1.50;;;26.80;99.90;;;;;;6206800;23;20005;-81
2022/08/21 09:34:57;;;;;;;;;;;26.70;99.90;;;;;;6209378;23;20005;-82
2022/08/21 09:37:23;;;;;;;5.32;1.67;;;26.60;99.90;;;;;;6206930;23;20338;-81
2022/08/21 09:39:49;;;;;;;2.25;1.48;;;26.70;99.90;;;;;;6208049;23;20091;-81
2022/08/21 09:42:26;;;;;;;1.88;1.52;;;26.70;99.90;;;;;;6208297;23;20028;-81
2022/08/21 09:45:17;;;;;;;4.88;1.42;;;26.70;99.90;;;;;;6207971;23;20001;-80
2022/08/21 09:47:45;;;;;;;7.75;1.83;;;26.70;99.90;;;;;;6208126;23;20050;-82
2022/08/21 09:50:24;;;;;;;2.72;1.25;;;26.60;99.90;;;;;;6207291;23;20040;-81
2022/08/21 09:52:58;;;;;;;3.25;1.40;;;26.50;99.90;;;;;;6208436;23;20004;-82
2022/08/21 09:58:17;;;;;;;5.07;1.90;;;26.40;99.90;;;;;;6207652;23;20067;-82
2022/08/21 10:00:44;;;;;;;1.75;1.42;;;26.50;99.90;;;;;;6208673;23;20700;-82
2022/08/21 10:03:18;;;;;;;2.65;1.45;;;26.50;99.90;;;;;;6206471;23;20467;-81
2022/08/21 10:06:00;;;;;;;4.32;1.55;;;26.40;99.90;;;;;;6208845;23;20004;-80
2022/08/21 10:08:28;;;;;;;4.73;1.53;;;26.40;99.90;;;;;;6206698;23;20432;-80
2022/08/21 10:11:07;;;;;;;2.15;1.20;;;26.50;99.90;;;;;;6206490;23;20005;-82
2022/08/21 10:13:58;;;;;;;1.73;1.35;;;26.50;99.90;;;;;;6208166;23;20368;-81
2022/08/21 10:16:57;;;;;;;2.15;1.30;;;26.60;99.90;;;;;;6206740;23;20044;-81
2022/08/21 10:19:26;;;;;;;2.88;1.58;;;26.70;99.90;;;;;;6206302;23;20024;-82
2022/08/21 10:22:10;;;;;;;4.25;1.60;;;26.70;99.90;;;;;;6207017;23;20394;-82
2022/08/21 10:25:06;;;;;;;2.03;1.35;;;26.80;99.90;;;;;;6206689;23;20066;-80
2022/08/21 10:28:01;;;;;;;1.73;1.30;;;27.00;99.90;;;;;;6208460;23;20005;-81
2022/08/21 10:30:57;;;;;;;2.22;1.15;;;27.20;99.90;;;;;;6210281;23;20365;-80
2022/08/21 10:33:35;;;;;;;2.83;1.40;;;27.50;99.90;;;;;;6212274;23;19997;-82
2022/08/21 10:36:22;;;;;;;3.63;1.38;;;27.70;99.90;;;;;;6211017;23;20317;-82
2022/08/21 10:39:04;;;;;;;2.60;1.10;;;27.90;99.90;;;;;;6210353;23;20138;-82
2022/08/21 10:41:45;;;;;;;;;;;28.00;99.50;;;;;;6213628;23;19997;-82
2022/08/21 10:44:43;;;;;;;3.13;1.50;;;27.90;99.90;;;;;;6209306;23;19903;-83
2022/08/21 10:47:18;;;;;;;2.78;1.40;;;28.10;99.90;;;;;;6144752;23;20095;-83
2022/08/21 10:50:02;;;;;;;1.58;1.33;;;28.10;99.90;;;;;;6210553;23;20054;-81
2022/08/21 10:52:50;;;;;;;1.52;1.15;;;28.20;99.90;;;;;;6213671;23;20028;-81
2022/08/21 10:55:29;;;;;;;4.00;1.50;;;28.20;99.90;;;;;;6213945;23;20428;-81
2022/08/21 10:57:57;;;;;;;2.45;1.40;;;28.20;99.90;;;;;;6213383;23;20404;-81
2022/08/21 11:00:33;;;;;;;3.95;1.17;;;28.40;99.90;;;;;;6214021;23;20439;-81
2022/08/21 11:03:12;;;;;;;1.67;1.13;;;28.30;99.90;;;;;;6212276;23;20007;-81
2022/08/21 11:05:59;;;;;;;1.73;1.50;;;28.30;99.90;;;;;;6214420;23;20372;-81
2022/08/21 11:08:50;;;;;;;1.27;1.13;;;28.20;99.90;;;;;;6211746;23;20004;-80
2022/08/21 11:11:20;;;;;;;2.97;1.15;;;28.20;99.90;;;;;;6212901;23;20340;-81
2022/08/21 11:13:49;;;;;;;2.10;1.13;;;28.10;99.90;;;;;;6214447;23;20004;-89
2022/08/21 11:16:39;;;;;;;1.33;1.00;;;27.90;99.60;;;;;;6214935;23;20008;-86
2022/08/21 11:19:15;;;;;;;1.20;1.10;;;27.80;99.10;;;;;;6212527;23;20023;-89
2022/08/21 11:21:50;;;;;;;3.05;1.15;;;27.60;98.30;;;;;;6214735;23;20045;-80
2022/08/21 11:24:39;;;;;;;1.70;0.88;;;27.60;98.00;;;;;;6213985;23;20027;-89
2022/08/21 11:27:19;;;;;;;1.73;1.02;;;27.50;97.00;;;;;;6213687;23;20005;-79
2022/08/21 11:29:51;;;;;;;1.70;0.93;;;27.50;98.20;;;;;;6213660;23;20004;-82
2022/08/21 11:32:26;;;;;;;1.45;0.80;;;27.40;97.90;;;;;;6213604;23;20010;-79
2022/08/21 11:35:38;;;;;;;2.88;0.80;;;27.30;97.50;;;;;;6212880;23;20400;-90
2022/08/21 11:38:04;;;;;;;1.75;1.00;;;27.30;99.70;;;;;;6212095;23;20000;-86
2022/08/21 11:40:39;;;;;;;0.90;0.90;;;27.40;99.50;;;;;;6212296;23;20058;-82
2022/08/21 11:43:07;;;;;;;1.08;0.98;;;27.40;99.90;;;;;;6213605;23;20005;-80
2022/08/21 11:46:02;;;;;;;1.60;1.05;;;27.40;98.70;;;;;;6212472;23;20005;-82
2022/08/21 11:48:40;;;;;;;2.05;1.10;;;27.30;99.40;;;;;;6212617;23;20304;-89
2022/08/21 11:51:17;;;;;;;1.95;1.00;;;27.30;99.90;;;;;;6214749;23;19997;-88
2022/08/21 11:53:56;;;;;;;5.28;1.10;;;27.30;99.90;;;;;;6213595;23;20163;-83
2022/08/21 11:56:42;;;;;;;2.30;1.20;;;27.30;99.90;;;;;;6212544;23;20016;-82
2022/08/21 11:59:16;;;;;;;2.47;1.10;;;27.40;99.90;;;;;;6212442;23;20319;-88
2022/08/21 12:01:44;;;;;;;1.38;1.00;;;27.50;99.90;;;;;;6212309;23;20427;-81
2022/08/21 12:04:17;;;;;;;2.38;1.00;;;27.40;99.90;;;;;;6213622;23;20009;-84
2022/08/21 12:06:43;;;;;;;1.20;1.10;;;27.30;99.90;;;;;;6212478;23;20220;-81
2022/08/21 12:09:29;;;;;;;1.00;0.95;;;27.30;99.90;;;;;;6212036;23;20051;-76
2022/08/21 12:12:24;;;;;;;2.08;1.30;;;27.60;99.90;;;;;;6211255;23;20004;-77
2022/08/21 12:15:03;;;;;;;2.15;1.10;;;29.10;99.90;;;;;;6211901;23;20092;-81
2022/08/21 12:17:37;;;;;;;2.17;1.17;;;30.40;99.90;;;;;;6211423;23;20013;-80
2022/08/21 12:20:29;;;;;;;2.40;1.02;;;31.60;98.50;;;;;;6213320;23;20095;-81
2022/08/21 12:23:17;;;;;;;1.52;1.00;;;32.40;97.40;;;;;;6212469;23;20309;-80
2022/08/21 12:25:45;;;;;;;2.05;1.02;;;33.40;96.00;;;;;;6213709;23;20035;-81
2022/08/21 12:28:23;;;;;;;2.53;0.95;;;33.80;94.30;;;;;;6211135;23;20012;-82
2022/08/21 12:30:48;;;;;;;0.80;0.75;;;34.00;94.60;;;;;;6209531;23;20438;-85
2022/08/21 12:33:32;;;;;;;0.88;0.73;;;34.20;94.10;;;;;;6212365;23;20059;-85
2022/08/21 12:36:12;;;;;;;2.30;0.98;;;34.50;93.60;;;;;;6212267;23;20331;-83
2022/08/21 12:38:59;;;;;;;5.47;1.00;;;34.90;92.80;;;;;;6211277;23;20013;-84
2022/08/21 12:41:30;;;;;;;4.93;0.90;;;35.30;92.90;;;;;;6213546;23;19996;-87
2022/08/21 12:44:00;;;;;;;2.80;1.10;;;35.40;92.60;;;;;;6214141;23;20020;-86
2022/08/21 12:46:50;;;;;;;1.88;1.10;;;35.30;92.10;;;;;;6213581;23;19993;-85
2022/08/21 12:49:32;;;;;;;2.58;1.13;;;36.00;92.70;;;;;;6211527;23;20031;-84
2022/08/21 12:52:24;;;;;;;2.53;1.00;;;36.50;91.40;;;;;;6213256;23;20001;-84
2022/08/21 12:54:49;;;;;;;1.73;1.00;;;36.60;91.70;;;;;;6213389;23;20340;-79
2022/08/21 12:57:27;;;;;;;2.25;1.00;;;36.60;91.10;;;;;;6213549;23;20072;-86
2022/08/21 13:00:02;;;;;;;2.55;1.20;;;36.70;91.10;;;;;;6212839;23;20032;-82
2022/08/21 13:02:31;;;;;;;9.20;1.40;;;36.70;91.10;;;;;;6213190;23;20008;-77
2022/08/21 13:05:01;;;;;;;1.73;1.13;;;36.60;91.00;;;;;;6211544;23;20096;-78
2022/08/21 13:07:30;;;;;;;3.13;0.98;;;37.00;90.90;;;;;;6212763;23;20004;-88
2022/08/21 13:10:04;;;;;;;3.22;1.23;;;36.80;91.40;;;;;;6211745;23;20026;-79